createdAt,value
2022-11-24T00:01:29.651Z,100.00
2022-11-24T00:04:01.245Z,100.00
2022-11-24T00:06:30.697Z,100.00
2022-11-24T00:08:59.587Z,100.00
2022-11-24T00:11:29.200Z,100.00
2022-11-24T00:13:58.925Z,100.00
2022-11-24T00:16:28.442Z,100.00
2022-11-24T00:18:59.008Z,100.00
2022-11-24T00:21:30.884Z,100.00
2022-11-24T00:23:59.927Z,100.00
2022-11-24T00:26:29.816Z,100.00
2022-11-24T00:29:01.093Z,100.00
2022-11-24T00:31:31.379Z,100.00
2022-11-24T00:34:02.464Z,100.00
2022-11-24T00:36:33.651Z,100.00
2022-11-24T00:39:03.708Z,100.00
2022-11-24T00:41:32.795Z,100.00
2022-11-24T00:44:01.374Z,100.00
2022-11-24T00:46:30.425Z,100.00
2022-11-24T00:49:00.492Z,100.00
2022-11-24T00:51:31.162Z,100.00
2022-11-24T00:54:00.028Z,100.00
2022-11-24T00:56:29.770Z,100.00
2022-11-24T00:58:58.184Z,100.00
2022-11-24T01:01:28.387Z,100.00
2022-11-24T01:03:56.740Z,100.00
2022-11-24T01:06:27.490Z,100.00
2022-11-24T01:08:58.156Z,100.00
2022-11-24T01:11:28.056Z,100.00
2022-11-24T01:13:58.707Z,100.00
2022-11-24T01:16:29.616Z,100.00
2022-11-24T01:18:58.073Z,100.00
2022-11-24T01:21:26.659Z,100.00
2022-11-24T01:23:56.283Z,100.00
2022-11-24T01:26:24.660Z,100.00
2022-11-24T01:28:54.891Z,100.00
2022-11-24T01:31:23.719Z,100.00
2022-11-24T01:33:52.303Z,100.00
2022-11-24T01:36:20.631Z,100.00
2022-11-24T01:38:48.961Z,100.00
2022-11-24T01:41:20.838Z,100.00
2022-11-24T01:43:50.301Z,100.00
2022-11-24T01:46:24.165Z,100.00
2022-11-24T01:48:57.878Z,100.00
2022-11-24T01:51:28.520Z,100.00
2022-11-24T01:54:00.595Z,100.00
2022-11-24T01:56:31.600Z,100.00
2022-11-24T01:59:01.748Z,100.00
2022-11-24T02:01:31.631Z,100.00
2022-11-24T02:04:01.203Z,100.00
2022-11-24T02:06:31.912Z,100.00
2022-11-24T02:09:04.725Z,100.00
2022-11-24T02:11:37.012Z,100.00
2022-11-24T02:14:08.436Z,100.00
2022-11-24T02:16:38.661Z,100.00
2022-11-24T02:19:13.645Z,100.00
2022-11-24T02:21:41.872Z,100.00
2022-11-24T02:24:20.508Z,100.00
2022-11-24T02:26:52.111Z,100.00
2022-11-24T02:29:21.013Z,100.00
2022-11-24T02:31:53.745Z,100.00
2022-11-24T02:34:22.237Z,100.00
2022-11-24T02:36:50.431Z,100.00
2022-11-24T02:39:19.119Z,100.00
2022-11-24T02:41:55.139Z,100.00
2022-11-24T02:44:28.446Z,100.00
2022-11-24T02:47:04.592Z,100.00
2022-11-24T02:49:32.888Z,100.00
2022-11-24T02:52:01.382Z,100.00
2022-11-24T02:54:29.681Z,100.00
2022-11-24T02:56:59.337Z,100.00
2022-11-24T02:59:27.636Z,100.00
2022-11-24T03:01:55.910Z,100.00
2022-11-24T03:04:24.458Z,100.00
2022-11-24T03:06:52.733Z,100.00
2022-11-24T03:09:20.956Z,100.00
2022-11-24T03:11:49.242Z,100.00
2022-11-24T03:14:18.814Z,100.00
2022-11-24T03:16:47.012Z,100.00
2022-11-24T03:19:15.327Z,100.00
2022-11-24T03:21:43.532Z,100.00
2022-11-24T03:24:11.782Z,100.00
2022-11-24T03:26:40.091Z,100.00
2022-11-24T03:29:08.266Z,100.00
2022-11-24T03:31:37.925Z,100.00
2022-11-24T03:34:06.268Z,100.00
2022-11-24T03:36:34.524Z,100.00
2022-11-24T03:39:02.853Z,100.00
2022-11-24T03:41:31.039Z,100.00
2022-11-24T03:43:59.211Z,100.00
2022-11-24T03:46:27.456Z,100.00
2022-11-24T03:48:57.055Z,100.00
2022-11-24T03:51:25.264Z,100.00
2022-11-24T03:53:53.502Z,100.00
2022-11-24T03:56:21.899Z,100.00
2022-11-24T03:58:50.274Z,100.00
2022-11-24T04:01:18.671Z,100.00
2022-11-24T04:03:47.131Z,100.00
2022-11-24T04:06:16.740Z,100.00
2022-11-24T04:08:45.232Z,100.00
2022-11-24T04:11:33.786Z,100.00
2022-11-24T04:14:01.004Z,100.00
2022-11-24T04:16:29.271Z,100.00
2022-11-24T04:18:57.535Z,100.00
2022-11-24T04:21:27.255Z,100.00
2022-11-24T04:23:55.516Z,100.00
2022-11-24T04:26:23.703Z,100.00
2022-11-24T04:28:52.212Z,100.00
2022-11-24T04:31:20.600Z,100.00
2022-11-24T04:33:48.868Z,100.00
2022-11-24T04:36:17.149Z,100.00
2022-11-24T04:39:24.422Z,100.00
2022-11-24T04:41:35.014Z,100.00
2022-11-24T04:44:03.247Z,100.00
2022-11-24T04:46:31.557Z,100.00
2022-11-24T04:48:59.799Z,100.00
2022-11-24T04:51:28.063Z,100.00
2022-11-24T04:53:57.662Z,100.00
2022-11-24T04:56:25.846Z,100.00
2022-11-24T04:58:54.010Z,100.00
2022-11-24T05:01:22.338Z,100.00
2022-11-24T05:03:50.595Z,100.00
2022-11-24T05:06:18.874Z,100.00
2022-11-24T05:08:48.647Z,100.00
2022-11-24T05:11:18.414Z,100.00
2022-11-24T05:13:46.842Z,100.00
2022-11-24T05:16:15.501Z,100.00
2022-11-24T05:18:43.790Z,100.00
2022-11-24T05:21:12.048Z,100.00
2022-11-24T05:23:40.280Z,100.00
2022-11-24T05:26:08.582Z,100.00
2022-11-24T05:28:38.302Z,100.00
2022-11-24T05:31:06.751Z,100.00
2022-11-24T05:33:35.131Z,100.00
2022-11-24T05:36:04.458Z,100.00
2022-11-24T05:38:33.476Z,100.00
2022-11-24T05:41:03.031Z,100.00
2022-11-24T05:43:31.579Z,100.00
2022-11-24T05:46:02.110Z,100.00
2022-11-24T05:48:30.424Z,100.00
2022-11-24T05:50:59.788Z,100.00
2022-11-24T05:53:28.109Z,100.00
2022-11-24T05:55:56.596Z,100.00
2022-11-24T05:58:25.033Z,100.00
2022-11-24T06:00:53.518Z,100.00
2022-11-24T06:03:23.828Z,100.00
2022-11-24T06:05:52.095Z,100.00
2022-11-24T06:08:20.335Z,100.00
2022-11-24T06:10:48.695Z,100.00
2022-11-24T06:13:17.032Z,100.00
2022-11-24T06:15:45.493Z,100.00
2022-11-24T06:18:13.864Z,100.00
2022-11-24T06:20:53.162Z,96.20
2022-11-24T06:23:31.388Z,96.63
2022-11-24T06:25:59.835Z,96.81
2022-11-24T06:28:29.061Z,90.72
2022-11-24T06:31:01.311Z,86.11
2022-11-24T06:33:33.438Z,81.53
2022-11-24T06:36:08.855Z,80.29
2022-11-24T06:38:37.989Z,78.64
2022-11-24T06:41:08.484Z,76.38
2022-11-24T06:43:37.400Z,76.11
2022-11-24T06:46:06.044Z,72.27
2022-11-24T06:48:34.433Z,70.18
2022-11-24T06:51:03.878Z,70.83
2022-11-24T06:53:37.860Z,70.46
2022-11-24T06:56:13.726Z,70.17
2022-11-24T06:58:45.460Z,67.91
2022-11-24T07:01:16.219Z,66.24
2022-11-24T07:03:44.464Z,64.24
2022-11-24T07:06:12.746Z,64.17
2022-11-24T07:08:42.485Z,62.73
2022-11-24T07:11:12.577Z,62.44
2022-11-24T07:13:40.771Z,69.12
2022-11-24T07:16:14.219Z,80.09
2022-11-24T07:18:42.737Z,69.76
2022-11-24T07:21:10.961Z,73.92
2022-11-24T07:23:39.614Z,69.59
2022-11-24T07:26:10.796Z,72.58
2022-11-24T07:28:39.689Z,81.16
2022-11-24T07:31:09.136Z,68.10
2022-11-24T07:33:37.795Z,68.68
2022-11-24T07:36:08.244Z,71.00
2022-11-24T07:38:37.109Z,73.29
2022-11-24T07:41:06.749Z,75.22
2022-11-24T07:43:37.851Z,74.55
2022-11-24T07:46:07.517Z,73.38
2022-11-24T07:48:36.102Z,70.42
2022-11-24T07:51:05.281Z,67.48
2022-11-24T07:53:34.631Z,66.97
2022-11-24T07:56:04.413Z,69.84
2022-11-24T07:58:36.038Z,71.12
2022-11-24T08:01:12.399Z,72.54
2022-11-24T08:03:41.150Z,70.12
2022-11-24T08:06:30.043Z,70.33
2022-11-24T08:08:58.471Z,67.17
2022-11-24T08:11:27.376Z,65.61
2022-11-24T08:13:58.295Z,65.85
2022-11-24T08:16:26.606Z,68.56
2022-11-24T08:18:56.486Z,70.02
2022-11-24T08:21:25.174Z,69.84
2022-11-24T08:23:55.991Z,68.79
2022-11-24T08:26:25.447Z,67.33
2022-11-24T08:28:56.641Z,63.25
2022-11-24T08:31:32.858Z,63.71
2022-11-24T08:34:01.628Z,62.06
2022-11-24T08:36:30.179Z,61.33
2022-11-24T08:38:59.746Z,58.51
2022-11-24T08:41:29.017Z,56.89
2022-11-24T08:43:57.377Z,57.01
2022-11-24T08:46:27.117Z,54.87
2022-11-24T08:48:56.487Z,54.19
2022-11-24T08:51:26.607Z,53.34
2022-11-24T08:53:57.136Z,52.54
2022-11-24T08:56:25.977Z,53.43
2022-11-24T08:58:55.207Z,53.11
2022-11-24T09:01:24.303Z,48.08
2022-11-24T09:03:54.365Z,49.09
2022-11-24T09:06:26.166Z,49.50
2022-11-24T09:08:56.578Z,50.76
2022-11-24T09:11:27.077Z,48.61
2022-11-24T09:13:55.977Z,47.65
2022-11-24T09:16:26.658Z,47.58
2022-11-24T09:19:00.977Z,48.67
2022-11-24T09:21:30.264Z,50.11
2022-11-24T09:23:58.750Z,49.92
2022-11-24T09:26:28.809Z,48.41
2022-11-24T09:28:58.288Z,47.02
2022-11-24T09:31:28.792Z,48.65
2022-11-24T09:33:58.071Z,50.44
2022-11-24T09:36:28.439Z,50.96
2022-11-24T09:38:57.067Z,50.78
2022-11-24T09:41:45.803Z,50.09
2022-11-24T09:45:04.748Z,50.37
2022-11-24T09:47:43.640Z,49.51
2022-11-24T09:50:17.349Z,49.60
2022-11-24T09:52:51.979Z,51.30
2022-11-24T09:55:31.712Z,50.34
2022-11-24T09:58:11.014Z,51.11
2022-11-24T10:00:39.779Z,50.96
2022-11-24T10:03:12.367Z,49.55
2022-11-24T10:05:40.882Z,51.34
2022-11-24T10:08:20.872Z,51.35
2022-11-24T10:10:56.311Z,51.17
2022-11-24T10:13:39.414Z,52.14
2022-11-24T10:16:19.486Z,52.03
2022-11-24T10:18:58.566Z,52.94
2022-11-24T10:21:48.580Z,52.60
2022-11-24T10:24:32.404Z,54.57
2022-11-24T10:27:06.920Z,54.71
2022-11-24T10:29:40.795Z,55.70
2022-11-24T10:32:17.426Z,56.41
2022-11-24T10:34:47.564Z,55.96
2022-11-24T10:37:21.292Z,55.41
2022-11-24T10:40:01.581Z,54.31
2022-11-24T10:42:31.609Z,53.68
2022-11-24T10:45:05.283Z,53.24
2022-11-24T10:47:33.546Z,54.62
2022-11-24T10:50:05.959Z,54.13
2022-11-24T10:52:40.234Z,52.07
2022-11-24T10:55:10.714Z,50.18
2022-11-24T10:57:40.766Z,47.80
2022-11-24T11:00:33.033Z,47.88
2022-11-24T11:03:20.782Z,48.67
2022-11-24T11:05:54.180Z,50.18
2022-11-24T11:08:25.129Z,50.54
2022-11-24T11:11:20.134Z,52.40
2022-11-24T11:14:01.644Z,52.34
2022-11-24T11:16:37.638Z,50.84
2022-11-24T11:19:26.039Z,51.96
2022-11-24T11:22:02.410Z,51.33
2022-11-24T11:24:31.139Z,51.89
2022-11-24T11:27:05.577Z,52.67
2022-11-24T11:35:14.527Z,51.09
2022-11-24T11:37:43.527Z,51.96
2022-11-24T11:40:17.168Z,51.54
2022-11-24T11:43:02.267Z,51.89
2022-11-24T11:45:36.073Z,52.75
2022-11-24T11:48:23.622Z,53.97
2022-11-24T11:53:48.916Z,54.00
2022-11-24T11:56:25.546Z,54.18
2022-11-24T11:59:26.776Z,54.74
2022-11-24T12:02:28.952Z,55.11
2022-11-24T12:05:00.865Z,55.65
2022-11-24T12:07:52.115Z,54.36
2022-11-24T12:10:29.901Z,54.02
2022-11-24T12:13:11.661Z,53.77
2022-11-24T12:15:46.156Z,53.04
2022-11-24T12:18:56.001Z,52.56
2022-11-24T12:21:26.034Z,52.76
2022-11-24T12:24:05.884Z,52.92
2022-11-24T12:26:42.638Z,52.98
2022-11-24T12:29:44.598Z,51.37
2022-11-24T12:32:39.001Z,52.59
2022-11-24T12:35:21.558Z,53.89
2022-11-24T12:38:01.306Z,54.01
2022-11-24T12:40:46.825Z,54.40
2022-11-24T12:43:24.315Z,55.08
2022-11-24T12:46:00.535Z,54.25
2022-11-24T12:48:44.555Z,53.83
2022-11-24T12:51:18.571Z,55.99
2022-11-24T12:53:49.836Z,55.69
2022-11-24T12:56:24.761Z,55.66
2022-11-24T12:59:04.497Z,56.43
2022-11-24T13:01:38.272Z,57.77
2022-11-24T13:04:16.962Z,57.90
2022-11-24T13:06:52.063Z,57.42
2022-11-24T13:09:20.655Z,57.77
2022-11-24T13:11:50.235Z,59.18
2022-11-24T13:14:22.858Z,59.32
2022-11-24T13:17:27.880Z,60.90
2022-11-24T13:19:47.442Z,60.10
2022-11-24T13:22:18.153Z,59.55
2022-11-24T13:24:46.769Z,58.83
2022-11-24T13:27:41.267Z,59.36
2022-11-24T13:30:52.271Z,57.30
2022-11-24T13:33:32.859Z,56.24
2022-11-24T13:36:52.763Z,54.68
2022-11-24T13:39:22.921Z,52.51
2022-11-24T13:42:09.529Z,51.48
2022-11-24T13:44:56.541Z,52.04
2022-11-24T13:47:42.534Z,53.30
2022-11-24T13:51:05.147Z,52.37
2022-11-24T13:53:37.390Z,52.96
2022-11-24T13:56:21.480Z,53.50
2022-11-24T13:58:52.585Z,54.34
2022-11-24T14:01:23.210Z,55.40
2022-11-24T14:07:01.199Z,56.47
2022-11-24T14:09:36.942Z,56.70
2022-11-24T14:12:13.492Z,56.37
2022-11-24T14:14:42.313Z,57.23
2022-11-24T14:17:18.820Z,57.15
2022-11-24T14:19:49.224Z,57.62
2022-11-24T14:22:20.225Z,57.61
2022-11-24T14:24:56.203Z,57.81
2022-11-24T14:27:30.570Z,57.51
2022-11-24T14:30:01.078Z,57.03
2022-11-24T14:32:29.552Z,56.47
2022-11-24T14:34:58.018Z,57.06
2022-11-24T14:37:26.508Z,57.02
2022-11-24T14:39:56.208Z,57.15
2022-11-24T14:42:27.442Z,56.46
2022-11-24T14:44:58.828Z,57.48
2022-11-24T14:47:32.011Z,57.99
2022-11-24T14:50:12.814Z,57.61
2022-11-24T14:52:47.212Z,60.09
2022-11-24T14:55:29.027Z,61.54
2022-11-24T14:57:57.534Z,60.05
2022-11-24T15:00:31.343Z,60.86
2022-11-24T15:03:17.214Z,60.45
2022-11-24T15:05:54.957Z,60.78
2022-11-24T15:08:25.396Z,60.63
2022-11-24T15:11:00.275Z,61.00
2022-11-24T15:13:29.937Z,61.60
2022-11-24T15:16:03.114Z,60.15
2022-11-24T15:18:40.778Z,61.41
2022-11-24T15:21:11.801Z,63.81
2022-11-24T15:23:45.863Z,67.31
2022-11-24T15:26:38.235Z,67.90
2022-11-24T15:29:08.462Z,69.16
2022-11-24T15:31:36.997Z,68.78
2022-11-24T15:34:05.452Z,69.27
2022-11-24T15:36:34.044Z,69.43
2022-11-24T15:39:02.605Z,69.20
2022-11-24T15:41:33.525Z,68.00
2022-11-24T15:44:01.989Z,68.64
2022-11-24T15:46:38.032Z,68.26
2022-11-24T15:49:07.657Z,66.22
2022-11-24T15:51:37.423Z,67.98
2022-11-24T15:54:07.330Z,70.87
2022-11-24T15:56:37.908Z,70.19
2022-11-24T15:59:06.254Z,71.38
2022-11-24T16:01:35.462Z,71.20
2022-11-24T16:04:04.257Z,71.96
2022-11-24T16:06:32.964Z,73.01
2022-11-24T16:09:01.610Z,73.92
2022-11-24T16:11:29.838Z,72.75
2022-11-24T16:13:59.758Z,74.24
2022-11-24T16:16:28.161Z,72.74
2022-11-24T16:18:56.537Z,73.76
2022-11-24T16:21:24.908Z,71.09
2022-11-24T16:23:53.145Z,72.95
2022-11-24T16:26:21.387Z,74.08
2022-11-24T16:28:49.734Z,74.81
2022-11-24T16:31:19.935Z,73.25
2022-11-24T16:33:48.273Z,71.86
2022-11-24T16:36:16.774Z,70.79
2022-11-24T16:38:45.299Z,71.85
2022-11-24T16:41:13.619Z,71.18
2022-11-24T16:43:41.944Z,70.00
2022-11-24T16:46:22.531Z,71.05
2022-11-24T16:48:52.776Z,72.27
2022-11-24T16:51:22.244Z,71.68
2022-11-24T16:53:58.879Z,73.10
2022-11-24T16:56:28.005Z,75.36
2022-11-24T16:58:56.783Z,77.10
2022-11-24T17:01:27.174Z,75.11
2022-11-24T17:03:55.460Z,74.07
2022-11-24T17:06:23.926Z,73.22
2022-11-24T17:08:52.188Z,72.52
2022-11-24T17:11:22.167Z,73.93
2022-11-24T17:13:51.283Z,75.54
2022-11-24T17:16:21.349Z,76.42
2022-11-24T17:18:51.411Z,79.28
2022-11-24T17:21:21.059Z,81.30
2022-11-24T17:23:54.924Z,79.47
2022-11-24T17:26:23.445Z,80.70
2022-11-24T17:28:51.766Z,80.59
2022-11-24T17:31:23.371Z,79.35
2022-11-24T17:33:55.025Z,79.45
2022-11-24T17:36:23.491Z,79.80
2022-11-24T17:38:52.009Z,80.80
2022-11-24T17:41:20.972Z,82.29
2022-11-24T17:43:50.461Z,82.91
2022-11-24T17:46:18.885Z,81.65
2022-11-24T17:48:47.702Z,79.23
2022-11-24T17:51:18.996Z,77.69
2022-11-24T17:53:49.449Z,79.83
2022-11-24T17:56:19.519Z,83.22
2022-11-24T17:58:47.856Z,86.13
2022-11-24T18:01:16.111Z,82.43
2022-11-24T18:03:47.728Z,84.67
2022-11-24T18:06:24.185Z,85.25
2022-11-24T18:08:54.316Z,83.93
2022-11-24T18:11:30.470Z,81.08
2022-11-24T18:14:02.325Z,80.78
2022-11-24T18:16:31.924Z,79.80
2022-11-24T18:19:08.718Z,82.18
2022-11-24T18:21:40.100Z,83.03
2022-11-24T18:24:09.088Z,83.72
2022-11-24T18:26:37.995Z,81.65
2022-11-24T18:29:06.373Z,80.50
2022-11-24T18:31:35.967Z,80.24
2022-11-24T18:34:05.293Z,80.30
2022-11-24T18:36:34.544Z,78.76
2022-11-24T18:39:05.546Z,79.26
2022-11-24T18:41:33.978Z,80.34
2022-11-24T18:44:03.486Z,80.03
2022-11-24T18:46:31.813Z,76.13
2022-11-24T18:49:00.798Z,77.56
2022-11-24T18:51:29.063Z,76.46
2022-11-24T18:53:58.335Z,75.58
2022-11-24T18:56:28.462Z,77.83
2022-11-24T18:58:57.671Z,81.65
2022-11-24T19:01:27.645Z,81.43
2022-11-24T19:03:58.189Z,83.69
2022-11-24T19:06:32.781Z,84.79
2022-11-24T19:09:02.835Z,82.98
2022-11-24T19:11:35.444Z,82.07
2022-11-24T19:14:05.511Z,80.39
2022-11-24T19:16:34.007Z,78.25
2022-11-24T19:19:03.202Z,75.80
2022-11-24T19:21:32.663Z,74.19
2022-11-24T19:24:05.302Z,74.50
2022-11-24T19:26:36.121Z,75.76
2022-11-24T19:29:05.458Z,78.79
2022-11-24T19:31:34.898Z,80.39
2022-11-24T19:34:03.750Z,81.88
2022-11-24T19:36:32.050Z,80.84
2022-11-24T19:39:01.146Z,80.60
2022-11-24T19:41:31.294Z,81.41
2022-11-24T19:44:01.304Z,80.63
2022-11-24T19:46:30.535Z,80.79
2022-11-24T19:49:01.597Z,80.42
2022-11-24T19:51:31.828Z,81.21
2022-11-24T19:54:00.738Z,80.65
2022-11-24T19:56:30.813Z,78.26
2022-11-24T19:59:04.453Z,77.72
2022-11-24T20:01:34.171Z,77.69
2022-11-24T20:04:05.463Z,76.83
2022-11-24T20:06:36.851Z,76.46
2022-11-24T20:09:07.479Z,74.25
2022-11-24T20:11:35.967Z,74.50
2022-11-24T20:14:06.533Z,74.52
2022-11-24T20:16:36.281Z,74.04
2022-11-24T20:19:07.283Z,72.13
2022-11-24T20:21:36.708Z,71.89
2022-11-24T20:24:07.202Z,71.64
2022-11-24T20:26:37.198Z,73.51
2022-11-24T20:29:10.047Z,71.13
2022-11-24T20:31:40.231Z,71.61
2022-11-24T20:34:09.338Z,71.96
2022-11-24T20:36:41.015Z,70.26
2022-11-24T20:39:12.750Z,71.37
2022-11-24T20:41:41.535Z,71.82
2022-11-24T20:44:15.309Z,70.55
2022-11-24T20:46:45.391Z,70.45
2022-11-24T20:49:16.874Z,69.11
2022-11-24T20:51:47.198Z,70.14
2022-11-24T20:54:16.663Z,69.25
2022-11-24T20:56:46.652Z,70.24
2022-11-24T20:59:17.955Z,70.49
2022-11-24T21:01:48.015Z,70.38
2022-11-24T21:04:18.516Z,72.41
2022-11-24T21:06:47.175Z,72.26
2022-11-24T21:09:15.740Z,74.08
2022-11-24T21:11:44.321Z,75.49
2022-11-24T21:14:12.749Z,76.90
2022-11-24T21:16:43.338Z,77.45
2022-11-24T21:19:13.651Z,76.89
2022-11-24T21:21:45.010Z,76.75
2022-11-24T21:24:15.629Z,75.72
2022-11-24T21:26:47.555Z,78.07
2022-11-24T21:29:17.424Z,77.40
2022-11-24T21:31:47.183Z,76.85
2022-11-24T21:34:16.709Z,78.23
2022-11-24T21:36:45.661Z,78.89
2022-11-24T21:39:15.419Z,81.07
2022-11-24T21:41:44.723Z,81.42
2022-11-24T21:44:13.697Z,81.68
2022-11-24T21:46:46.158Z,82.64
2022-11-24T21:49:20.840Z,82.82
2022-11-24T21:51:55.448Z,83.87
2022-11-24T21:54:24.020Z,84.22
2022-11-24T21:56:52.266Z,95.34
2022-11-24T21:59:22.059Z,84.26
2022-11-24T22:01:50.322Z,89.76
2022-11-24T22:04:20.119Z,88.78
2022-11-24T22:06:48.406Z,87.63
2022-11-24T22:09:18.401Z,85.51
2022-11-24T22:11:49.434Z,88.00
2022-11-24T22:14:17.912Z,83.04
2022-11-24T22:16:46.380Z,85.73
2022-11-24T22:19:14.706Z,89.17
2022-11-24T22:21:44.428Z,84.90
2022-11-24T22:24:12.920Z,86.07
2022-11-24T22:26:41.178Z,87.87
2022-11-24T22:29:10.584Z,86.07
2022-11-24T22:31:38.846Z,88.49
2022-11-24T22:34:07.258Z,85.25
2022-11-24T22:36:36.744Z,90.63
2022-11-24T22:39:07.197Z,84.91
2022-11-24T22:41:36.801Z,85.45
2022-11-24T22:44:05.882Z,86.08
2022-11-24T22:46:34.173Z,86.43
2022-11-24T22:49:02.819Z,85.25
2022-11-24T22:51:33.123Z,85.55
2022-11-24T22:54:03.314Z,91.00
2022-11-24T22:56:33.456Z,86.56
2022-11-24T22:59:02.575Z,86.46
2022-11-24T23:01:33.652Z,88.14
2022-11-24T23:04:02.601Z,100.00
2022-11-24T23:06:32.958Z,93.09
2022-11-24T23:09:02.487Z,88.46
2022-11-24T23:11:37.977Z,89.45
2022-11-24T23:14:07.969Z,87.77
2022-11-24T23:16:36.363Z,88.94
2022-11-24T23:19:04.655Z,91.28
2022-11-24T23:21:34.632Z,89.48
2022-11-24T23:24:04.209Z,88.04
2022-11-24T23:26:35.947Z,89.10
2022-11-24T23:29:04.835Z,90.53
2022-11-24T23:31:33.733Z,100.00
2022-11-24T23:34:03.399Z,87.58
2022-11-24T23:36:32.319Z,89.33
2022-11-24T23:39:03.923Z,93.61
2022-11-24T23:41:33.705Z,87.66
2022-11-24T23:44:01.916Z,87.70
2022-11-24T23:46:30.538Z,88.62
2022-11-24T23:48:58.951Z,94.97
2022-11-24T23:51:28.695Z,84.88
2022-11-24T23:53:57.574Z,87.65
2022-11-24T23:56:27.323Z,85.14
2022-11-24T23:58:56.914Z,84.99
